Time;durP1;ratioP1;P1;durP2;ratioP2;P2;SDS_P1;SDS_P2;PMS_P1;PMS_P2;Temp;Humidity;BMP_temperature;BMP_pressure;BME280_temperature;BME280_humidity;BME280_pressure;Samples;Min_cycle;Max_cycle;Signal;HPM_P1;HPM_P2
2023/01/15 13:28:34;;;;;;;3.73;0.30;;;7.40;99.90;;;;;;4944023;23;20240;-75
2023/01/15 13:31:13;;;;;;;1.23;0.50;;;7.40;99.90;;;;;;4922460;29;20205;-77
2023/01/15 13:33:44;;;;;;;1.70;0.40;;;7.40;99.90;;;;;;4932947;29;20230;-76
2023/01/15 13:36:14;;;;;;;2.73;0.30;;;7.40;99.90;;;;;;4918626;29;20212;-76
2023/01/15 13:38:45;;;;;;;3.57;0.60;;;7.40;99.90;;;;;;4918294;29;20584;-76
2023/01/15 13:42:30;;;;;;;1.13;0.60;;;7.40;99.90;;;;;;4918289;29;20245;-76
2023/01/15 13:44:17;;;;;;;1.70;0.50;;;7.40;99.90;;;;;;4907236;29;20589;-74
2023/01/15 13:46:45;;;;;;;2.27;0.40;;;7.50;99.90;;;;;;4899305;29;20218;-73
2023/01/15 13:49:19;;;;;;;0.70;0.30;;;7.50;99.90;;;;;;4915734;29;20206;-74
2023/01/15 13:51:49;;;;;;;0.80;0.40;;;7.40;99.90;;;;;;4915874;29;20269;-76
2023/01/15 13:54:18;;;;;;;2.13;0.70;;;7.30;99.90;;;;;;4918523;29;20244;-76
2023/01/15 13:56:45;;;;;;;0.70;0.30;;;7.20;99.90;;;;;;4918123;29;20220;-75
2023/01/15 13:59:35;;;;;;;2.57;0.53;;;7.10;99.90;;;;;;4918077;29;20703;-74
2023/01/15 14:02:13;;;;;;;3.27;0.50;;;7.00;99.90;;;;;;4917867;29;20213;-75
2023/01/15 14:04:40;;;;;;;0.60;0.30;;;7.00;99.90;;;;;;4917947;29;20232;-76
2023/01/15 14:07:18;;;;;;;2.00;0.43;;;7.10;99.90;;;;;;4917853;29;20220;-74
2023/01/15 14:09:45;;;;;;;2.10;0.43;;;7.10;99.90;;;;;;4918008;29;20205;-73
2023/01/15 14:12:27;;;;;;;2.50;0.60;;;7.00;99.90;;;;;;4917856;29;20213;-76
2023/01/15 14:15:26;;;;;;;2.00;0.63;;;6.90;99.90;;;;;;4917715;29;20250;-77
2023/01/15 14:18:22;;;;;;;1.60;0.70;;;6.70;99.90;;;;;;4916814;29;20220;-76
2023/01/15 14:21:11;;;;;;;4.40;1.33;;;6.60;99.90;;;;;;4917517;29;20233;-76
2023/01/15 14:24:12;;;;;;;0.77;0.50;;;6.50;99.90;;;;;;4916936;29;20238;-73
2023/01/15 14:26:47;;;;;;;1.07;0.50;;;6.60;99.90;;;;;;4904640;29;20668;-73
2023/01/15 14:29:33;;;;;;;0.93;0.57;;;6.70;99.90;;;;;;4917335;29;20216;-72
2023/01/15 14:32:08;;;;;;;2.00;0.80;;;6.60;99.90;;;;;;4917856;29;20217;-73
2023/01/15 14:34:36;;;;;;;3.03;0.70;;;6.70;99.90;;;;;;4917719;29;20237;-73
2023/01/15 14:37:06;;;;;;;1.37;0.80;;;6.70;99.90;;;;;;4917717;29;20212;-72
2023/01/15 14:39:47;;;;;;;1.80;0.70;;;6.70;99.90;;;;;;4917522;29;20242;-73
2023/01/15 14:45:05;;;;;;;4.43;0.70;;;6.60;99.90;;;;;;4917231;29;20238;-73
2023/01/15 14:47:43;;;;;;;3.70;0.60;;;6.50;99.90;;;;;;4917350;29;20213;-72
2023/01/15 14:50:33;;;;;;;2.20;0.57;;;6.60;99.90;;;;;;4916984;29;20205;-73
2023/01/15 14:53:04;;;;;;;1.37;0.67;;;6.60;99.90;;;;;;4912524;29;20217;-72
2023/01/15 14:55:31;;;;;;;4.93;0.43;;;6.60;99.90;;;;;;4916907;29;20216;-72
2023/01/15 14:58:02;;;;;;;1.67;0.43;;;6.60;99.90;;;;;;4917021;29;20220;-72
2023/01/15 15:00:35;;;;;;;2.87;0.63;;;6.70;99.90;;;;;;4917120;29;20245;-72
2023/01/15 15:03:05;;;;;;;1.53;0.40;;;6.60;99.90;;;;;;4917160;29;20213;-72
2023/01/15 15:05:34;;;;;;;0.73;0.40;;;6.70;99.90;;;;;;4917282;29;20660;-73
2023/01/15 15:08:02;;;;;;;1.30;0.50;;;6.70;99.90;;;;;;4917360;29;20209;-72
2023/01/15 15:10:34;;;;;;;4.93;0.60;;;6.60;99.90;;;;;;4917064;29;20220;-72
2023/01/15 15:13:06;;;;;;;1.17;0.33;;;6.60;99.90;;;;;;4916680;29;20213;-72
2023/01/15 15:15:42;;;;;;;3.00;0.70;;;6.50;99.90;;;;;;4917177;29;20220;-74
2023/01/15 15:18:22;;;;;;;3.30;0.50;;;6.50;99.90;;;;;;4917358;29;20217;-72
2023/01/15 15:20:55;;;;;;;0.93;0.50;;;6.50;99.90;;;;;;4918276;29;20247;-73
2023/01/15 15:23:31;;;;;;;2.03;0.50;;;6.60;99.90;;;;;;4909326;29;20207;-71
2023/01/15 15:26:00;;;;;;;2.40;0.60;;;6.50;99.90;;;;;;4907593;29;20588;-72
2023/01/15 15:28:29;;;;;;;3.70;0.50;;;6.60;99.90;;;;;;4906199;29;20242;-73
2023/01/15 15:31:00;;;;;;;5.17;0.73;;;6.60;99.90;;;;;;4907396;29;20242;-72
2023/01/15 15:33:37;;;;;;;1.23;0.50;;;6.50;99.90;;;;;;4907331;29;20249;-72
2023/01/15 15:36:05;;;;;;;1.97;0.57;;;6.40;99.90;;;;;;4900456;29;20217;-72
2023/01/15 15:38:32;;;;;;;2.20;0.70;;;6.40;99.90;;;;;;4907662;29;20202;-72
2023/01/15 15:41:02;;;;;;;2.67;0.97;;;6.40;99.90;;;;;;4913572;29;20728;-72
2023/01/15 15:49:14;;;;;;;1.53;0.50;;;6.30;99.90;;;;;;4913791;29;20289;-73
2023/01/15 15:51:47;;;;;;;1.50;0.50;;;6.30;99.90;;;;;;4897559;29;20234;-74
2023/01/15 15:54:17;;;;;;;3.03;0.70;;;6.40;99.90;;;;;;4897378;29;20245;-73
2023/01/15 15:56:51;;;;;;;1.83;0.40;;;6.40;99.90;;;;;;4897370;29;20218;-73
2023/01/15 15:59:27;;;;;;;5.00;0.80;;;6.30;99.90;;;;;;4897507;29;20206;-73
2023/01/15 16:01:54;;;;;;;4.13;1.00;;;6.30;99.90;;;;;;4897655;29;20241;-72
2023/01/15 16:04:23;;;;;;;4.17;0.80;;;6.40;99.90;;;;;;4897528;29;20234;-72
2023/01/15 16:06:50;;;;;;;1.90;0.50;;;6.40;99.90;;;;;;4897537;29;20211;-73
2023/01/15 16:09:21;;;;;;;0.67;0.40;;;6.30;99.90;;;;;;4897738;29;20289;-73
2023/01/15 16:11:50;;;;;;;1.20;0.50;;;6.20;99.90;;;;;;4897730;29;20222;-73
2023/01/15 16:14:18;;;;;;;2.53;0.43;;;6.10;99.90;;;;;;4897570;29;20238;-72
2023/01/15 16:16:46;;;;;;;2.47;0.83;;;6.10;99.90;;;;;;4900197;29;20658;-73
2023/01/15 16:19:18;;;;;;;4.83;0.80;;;6.00;99.90;;;;;;4900722;29;20212;-73
2023/01/15 16:21:46;;;;;;;1.77;0.60;;;5.90;99.90;;;;;;4900719;29;20238;-72
2023/01/15 16:24:25;;;;;;;2.27;0.53;;;5.90;99.90;;;;;;4900646;29;20713;-72
2023/01/15 16:26:56;;;;;;;3.00;0.60;;;5.90;99.90;;;;;;4900466;29;20228;-72
2023/01/15 16:29:28;;;;;;;1.37;0.40;;;5.90;99.90;;;;;;4900782;29;20674;-73
2023/01/15 16:31:57;;;;;;;2.77;0.60;;;5.80;99.90;;;;;;4900854;29;20218;-73
2023/01/15 16:34:27;;;;;;;3.77;1.20;;;5.80;99.90;;;;;;4900651;29;20237;-72
2023/01/15 16:36:55;;;;;;;6.23;0.80;;;5.80;99.90;;;;;;4900812;29;20221;-73
2023/01/15 16:39:26;;;;;;;3.97;0.83;;;5.80;99.90;;;;;;4900719;29;20301;-73
2023/01/15 16:41:56;;;;;;;4.00;1.30;;;5.90;99.90;;;;;;4900748;29;20242;-73
2023/01/15 16:44:30;;;;;;;3.63;1.00;;;5.90;99.90;;;;;;4900255;29;20234;-73
2023/01/15 16:47:00;;;;;;;3.07;1.30;;;5.90;99.90;;;;;;4900260;29;20221;-72
2023/01/15 16:49:29;;;;;;;2.60;1.30;;;6.00;99.90;;;;;;4900059;29;20674;-73
2023/01/15 16:51:58;;;;;;;6.93;1.43;;;6.10;99.90;;;;;;4900573;29;20211;-72
2023/01/15 16:54:44;;;;;;;3.37;1.10;;;6.10;99.90;;;;;;4900389;29;20706;-72
2023/01/15 16:57:41;;;;;;;5.17;1.50;;;6.30;99.90;;;;;;4899878;29;20217;-73
2023/01/15 17:00:29;;;;;;;5.07;1.47;;;6.30;99.90;;;;;;4900204;29;20213;-73
2023/01/15 17:02:56;;;;;;;3.03;1.43;;;6.40;99.90;;;;;;4899973;29;20597;-73
2023/01/15 17:05:25;;;;;;;2.20;0.93;;;6.30;99.90;;;;;;4899662;29;20724;-73
2023/01/15 17:07:54;;;;;;;4.70;1.10;;;6.30;99.90;;;;;;4899852;29;20210;-73
2023/01/15 17:10:24;;;;;;;5.80;1.60;;;6.40;99.90;;;;;;4899965;29;20206;-74
2023/01/15 17:12:53;;;;;;;6.77;1.77;;;6.40;99.90;;;;;;4898532;29;20214;-73
2023/01/15 17:15:37;;;;;;;4.90;1.60;;;6.40;99.90;;;;;;4914865;29;20225;-73
2023/01/15 17:18:21;;;;;;;3.63;1.70;;;6.40;99.90;;;;;;4918288;29;20217;-74
2023/01/15 17:20:48;;;;;;;2.60;1.20;;;6.30;99.90;;;;;;4918437;29;20202;-73
2023/01/15 17:23:18;;;;;;;5.30;1.20;;;6.30;99.90;;;;;;4918671;29;20205;-73
2023/01/15 17:25:47;;;;;;;4.20;1.27;;;6.20;99.90;;;;;;4918511;29;20298;-77
2023/01/15 17:28:15;;;;;;;1.67;0.93;;;6.20;99.90;;;;;;4917209;29;20222;-75
2023/01/15 17:30:42;;;;;;;3.83;0.83;;;6.30;99.90;;;;;;4913137;29;20217;-75
2023/01/15 17:33:12;;;;;;;3.07;0.70;;;5.90;99.90;;;;;;4915503;29;20206;-73
2023/01/15 17:35:40;;;;;;;4.40;1.00;;;5.70;99.90;;;;;;4917416;29;20214;-73
2023/01/15 17:38:10;;;;;;;4.47;1.10;;;5.70;99.90;;;;;;4917181;29;20604;-80
2023/01/15 17:40:39;;;;;;;2.20;1.00;;;5.50;99.90;;;;;;4917075;29;20209;-73
2023/01/15 17:43:07;;;;;;;4.47;1.07;;;5.50;99.90;;;;;;4919808;29;20232;-76
2023/01/15 17:45:35;;;;;;;4.00;1.10;;;5.50;99.90;;;;;;4935136;29;20215;-76
2023/01/15 17:48:02;;;;;;;2.43;1.27;;;5.60;99.90;;;;;;4936339;29;20215;-76
2023/01/15 17:50:30;;;;;;;5.50;1.50;;;5.60;99.90;;;;;;4932802;29;20609;-76
2023/01/15 17:52:57;;;;;;;4.83;1.10;;;5.60;99.90;;;;;;4916590;29;20210;-77
2023/01/15 18:06:32;;;;;;;4.13;1.00;;;5.70;99.90;;;;;;4916587;29;20229;-77
2023/01/15 18:09:02;;;;;;;2.83;0.73;;;5.80;99.90;;;;;;4916216;29;20206;-77
2023/01/15 18:11:29;;;;;;;5.97;2.83;;;5.80;99.90;;;;;;4927153;29;20235;-77
2023/01/15 18:13:58;;;;;;;5.23;1.30;;;5.90;99.90;;;;;;4924797;29;20240;-75
2023/01/15 18:16:26;;;;;;;3.37;1.00;;;5.80;99.90;;;;;;4916279;29;20209;-76
2023/01/15 18:18:53;;;;;;;4.10;0.70;;;5.90;99.90;;;;;;4917019;29;20665;-77
2023/01/15 18:21:20;;;;;;;1.97;0.87;;;5.90;99.90;;;;;;4916289;29;20237;-73
2023/01/15 18:23:47;;;;;;;4.37;0.87;;;6.00;99.90;;;;;;4915183;29;20229;-76
2023/01/15 18:26:14;;;;;;;4.57;0.83;;;6.00;99.90;;;;;;4915664;29;20206;-75
2023/01/15 18:28:41;;;;;;;2.80;1.00;;;6.00;99.90;;;;;;4915041;29;20212;-77
2023/01/15 18:31:10;;;;;;;3.63;1.17;;;6.00;99.90;;;;;;4915603;29;20316;-74
2023/01/15 18:33:37;;;;;;;1.63;0.70;;;5.90;99.90;;;;;;4916217;29;20230;-74
2023/01/15 18:36:06;;;;;;;4.57;1.20;;;5.90;99.90;;;;;;4916699;29;20220;-77
2023/01/15 18:38:35;;;;;;;2.33;1.10;;;5.90;99.90;;;;;;4917132;29;20564;-77
2023/01/15 18:41:09;;;;;;;1.33;1.17;;;5.90;99.90;;;;;;4917210;29;20505;-78
2023/01/15 18:49:06;;;;;;;10.00;1.80;;;5.90;99.90;;;;;;4917028;29;20204;-77
2023/01/15 18:51:32;;;;;;;4.53;1.90;;;5.90;99.90;;;;;;4917654;29;20217;-78
2023/01/15 18:53:59;;;;;;;7.30;2.00;;;5.90;99.90;;;;;;4917157;29;20712;-75
2023/01/15 18:56:46;;;;;;;9.63;1.93;;;6.00;99.90;;;;;;4917637;29;20210;-75
2023/01/15 18:59:14;;;;;;;2.83;1.27;;;6.10;99.90;;;;;;4917342;29;20296;-76
2023/01/15 19:01:42;;;;;;;1.83;0.80;;;6.10;99.90;;;;;;4917196;29;20791;-77
2023/01/15 19:04:10;;;;;;;5.67;1.30;;;6.00;99.90;;;;;;4917044;29;20324;-77
2023/01/15 19:06:37;;;;;;;3.67;0.80;;;5.90;99.90;;;;;;4917038;29;20236;-77
2023/01/15 19:09:05;;;;;;;4.47;1.00;;;5.90;99.90;;;;;;4903851;29;20210;-76
2023/01/15 19:11:32;;;;;;;6.30;1.83;;;5.80;99.90;;;;;;4905179;29;20274;-76
2023/01/15 19:19:29;;;;;;;4.03;0.50;;;5.80;99.90;;;;;;4907571;29;20230;-73
2023/01/15 19:24:40;;;;;;;4.23;0.70;;;5.70;99.90;;;;;;4907792;29;20245;-76
2023/01/15 19:27:07;;;;;;;2.07;0.60;;;5.80;99.90;;;;;;4905776;29;20218;-77
2023/01/15 19:29:34;;;;;;;0.90;0.40;;;5.80;99.90;;;;;;4906373;29;20205;-78
2023/01/15 19:32:03;;;;;;;3.13;0.80;;;5.80;99.90;;;;;;4923766;29;20212;-76
2023/01/15 19:34:31;;;;;;;6.50;1.00;;;5.80;99.90;;;;;;4934420;29;20240;-76
2023/01/15 19:36:58;;;;;;;2.57;0.73;;;5.80;99.90;;;;;;4910743;29;20209;-75
2023/01/15 19:39:25;;;;;;;3.07;0.90;;;5.80;99.90;;;;;;4906796;29;20232;-74
2023/01/15 19:50:19;;;;;;;5.13;0.97;;;5.90;99.90;;;;;;4902772;29;20688;-75
2023/01/15 19:52:47;;;;;;;2.10;0.80;;;5.90;99.90;;;;;;4914972;29;20215;-75
2023/01/15 19:55:14;;;;;;;2.60;0.90;;;6.00;99.90;;;;;;4908370;29;20234;-74
2023/01/15 19:57:42;;;;;;;4.03;0.70;;;6.00;99.90;;;;;;4911253;29;20221;-75
2023/01/15 20:00:12;;;;;;;2.27;0.90;;;6.00;99.90;;;;;;4907985;29;20217;-75
2023/01/15 20:02:40;;;;;;;3.37;0.87;;;6.00;99.90;;;;;;4910436;29;20597;-74
2023/01/15 20:05:09;;;;;;;4.20;1.10;;;6.10;99.90;;;;;;4906323;29;20233;-74
2023/01/15 20:07:36;;;;;;;3.17;1.33;;;6.10;99.90;;;;;;4911654;29;20213;-74
2023/01/15 20:10:04;;;;;;;4.60;1.03;;;6.10;99.90;;;;;;4912934;29;20205;-74
2023/01/15 20:15:16;;;;;;;1.27;0.53;;;6.10;99.90;;;;;;4915626;29;20260;-74
2023/01/15 20:17:44;;;;;;;5.83;1.00;;;6.10;99.90;;;;;;4909925;29;20221;-75
2023/01/15 20:20:12;;;;;;;2.87;1.00;;;6.10;99.90;;;;;;4909483;29;20213;-74
2023/01/15 20:22:39;;;;;;;7.47;1.67;;;6.20;99.90;;;;;;4909905;29;20242;-74
2023/01/15 20:25:09;;;;;;;5.70;1.23;;;6.20;99.90;;;;;;4916084;29;20229;-73
2023/01/15 20:27:38;;;;;;;3.50;0.40;;;6.20;99.90;;;;;;4908423;29;20214;-73
2023/01/15 20:30:08;;;;;;;7.20;0.47;;;6.20;99.90;;;;;;4915832;29;20213;-73
2023/01/15 20:32:35;;;;;;;0.73;0.30;;;6.10;99.90;;;;;;4905832;29;20214;-74
2023/01/15 20:35:04;;;;;;;2.47;1.00;;;5.90;99.90;;;;;;4905494;29;20229;-75
2023/01/15 20:37:31;;;;;;;6.13;0.50;;;5.80;99.90;;;;;;4904022;29;20209;-74
2023/01/15 20:39:57;;;;;;;1.60;0.63;;;5.70;99.90;;;;;;4914330;29;20236;-75
2023/01/15 20:45:10;;;;;;;1.33;0.73;;;5.50;99.90;;;;;;4911552;29;20288;-73
2023/01/15 20:50:26;;;;;;;3.03;0.57;;;5.50;99.90;;;;;;4909781;29;20696;-75
2023/01/15 20:52:55;;;;;;;2.63;0.40;;;5.50;99.90;;;;;;4915989;29;20213;-75
2023/01/15 20:55:23;;;;;;;0.70;0.40;;;5.50;99.90;;;;;;4909774;29;20226;-75
2023/01/15 20:57:50;;;;;;;0.80;0.37;;;5.50;99.90;;;;;;4915896;29;20262;-75
2023/01/15 21:00:19;;;;;;;8.17;0.80;;;5.40;99.90;;;;;;4909659;29;20216;-75
2023/01/15 21:02:46;;;;;;;0.83;0.40;;;5.40;99.90;;;;;;4918571;29;20775;-76
2023/01/15 21:05:13;;;;;;;6.73;0.60;;;5.40;99.90;;;;;;4913173;29;20232;-75
2023/01/15 21:07:42;;;;;;;5.23;0.50;;;5.40;99.90;;;;;;4918508;29;20305;-76
2023/01/15 21:10:11;;;;;;;1.33;0.50;;;5.40;99.90;;;;;;4910261;29;20216;-75
2023/01/15 21:12:38;;;;;;;5.80;0.63;;;5.40;99.90;;;;;;4917082;29;20221;-75
2023/01/15 21:15:07;;;;;;;0.97;0.37;;;5.40;99.90;;;;;;4917528;29;20236;-76
2023/01/15 21:17:33;;;;;;;4.40;0.40;;;5.40;99.90;;;;;;4916583;29;20210;-76
2023/01/15 21:20:00;;;;;;;2.20;0.50;;;5.50;99.90;;;;;;4914817;29;20209;-76
2023/01/15 21:22:29;;;;;;;0.53;0.30;;;5.50;99.90;;;;;;4914442;29;20738;-76
2023/01/15 21:24:57;;;;;;;0.83;0.30;;;5.50;99.90;;;;;;4913669;29;20226;-76
2023/01/15 21:27:24;;;;;;;3.57;0.77;;;5.50;99.90;;;;;;4912763;29;20229;-76
2023/01/15 21:29:51;;;;;;;1.70;0.53;;;5.40;99.90;;;;;;4918315;29;20209;-75
2023/01/15 21:32:18;;;;;;;1.73;0.70;;;5.40;99.90;;;;;;4912479;29;20222;-76
2023/01/15 21:34:44;;;;;;;2.20;0.37;;;5.40;99.90;;;;;;4918634;29;20226;-75
2023/01/15 21:37:11;;;;;;;2.20;0.40;;;5.40;99.90;;;;;;4912912;29;20221;-75
2023/01/15 21:39:38;;;;;;;1.90;0.40;;;5.40;99.90;;;;;;4918229;29;20206;-76
2023/01/15 21:44:51;;;;;;;0.47;0.20;;;5.50;99.90;;;;;;4918514;29;20318;-75
2023/01/15 21:47:19;;;;;;;1.80;0.50;;;5.50;99.90;;;;;;4903797;29;21599;-75
2023/01/15 21:49:46;;;;;;;3.90;0.60;;;5.50;99.90;;;;;;4908366;29;20201;-75
2023/01/15 21:52:14;;;;;;;0.57;0.40;;;5.50;99.90;;;;;;4908642;29;20348;-75
2023/01/15 21:54:42;;;;;;;1.13;0.50;;;5.50;99.90;;;;;;4916344;29;20236;-75
2023/01/15 21:57:11;;;;;;;3.13;0.60;;;5.50;99.90;;;;;;4906641;29;20209;-75
2023/01/15 21:59:40;;;;;;;4.87;0.50;;;5.50;99.90;;;;;;4915243;29;20659;-74
2023/01/15 22:02:10;;;;;;;1.13;0.40;;;5.50;99.90;;;;;;4905333;29;20217;-74
2023/01/15 22:04:37;;;;;;;1.77;0.40;;;5.40;99.90;;;;;;4912806;29;20231;-75
2023/01/15 22:07:03;;;;;;;1.50;0.43;;;5.40;99.90;;;;;;4913409;29;20206;-75
2023/01/15 22:09:30;;;;;;;1.80;0.60;;;5.30;99.90;;;;;;4911990;29;20217;-75
2023/01/15 22:11:57;;;;;;;0.93;0.50;;;5.30;99.90;;;;;;4912057;29;20546;-75
2023/01/15 22:14:28;;;;;;;1.10;0.50;;;5.30;99.90;;;;;;4911382;29;20260;-75
2023/01/15 22:16:57;;;;;;;0.53;0.37;;;5.30;99.90;;;;;;4917668;29;20692;-76
2023/01/15 22:19:26;;;;;;;1.70;0.60;;;5.20;99.90;;;;;;4910393;29;20212;-75
2023/01/15 22:21:55;;;;;;;1.50;0.40;;;5.30;99.90;;;;;;4915560;29;20210;-75
2023/01/15 22:24:26;;;;;;;0.90;0.37;;;5.20;99.90;;;;;;4906141;29;20242;-75
2023/01/15 22:26:53;;;;;;;0.67;0.30;;;5.20;99.90;;;;;;4907725;29;20216;-75
2023/01/15 22:29:21;;;;;;;3.97;0.40;;;5.20;99.90;;;;;;4908162;29;20212;-75
2023/01/15 22:31:49;;;;;;;1.63;0.50;;;5.10;99.90;;;;;;4916534;29;20672;-75
2023/01/15 22:34:17;;;;;;;1.63;0.80;;;5.10;99.90;;;;;;4907848;29;20229;-75
2023/01/15 22:36:44;;;;;;;0.70;0.40;;;5.10;99.90;;;;;;4903853;29;20217;-75
2023/01/15 22:39:10;;;;;;;1.77;0.50;;;5.10;99.90;;;;;;4909503;29;20211;-74
2023/01/15 22:44:21;;;;;;;1.50;0.60;;;5.20;99.90;;;;;;4906228;29;20248;-74
2023/01/15 22:46:52;;;;;;;1.30;0.30;;;5.10;99.90;;;;;;4909640;29;20206;-75
2023/01/15 22:49:19;;;;;;;2.87;0.70;;;5.10;99.90;;;;;;4912817;29;20205;-75
2023/01/15 22:51:46;;;;;;;0.70;0.30;;;5.10;99.90;;;;;;4905574;29;20198;-75
2023/01/15 22:54:13;;;;;;;2.40;0.40;;;5.10;99.90;;;;;;4912267;29;20233;-75
2023/01/15 22:56:40;;;;;;;0.87;0.50;;;5.10;99.90;;;;;;4905531;29;20217;-74
2023/01/15 22:59:07;;;;;;;1.23;0.47;;;5.00;99.90;;;;;;4906703;29;20213;-74
2023/01/15 23:01:34;;;;;;;0.70;0.40;;;5.00;99.90;;;;;;4904066;29;20224;-74
2023/01/15 23:04:02;;;;;;;2.27;0.40;;;5.00;99.90;;;;;;4909218;29;20245;-74
